createdAt,value
2022-10-13T00:14:20.196Z,19.20
2022-10-13T00:29:25.145Z,19.00
2022-10-13T00:45:02.068Z,18.90
2022-10-13T01:00:08.266Z,19.10
2022-10-13T01:15:20.922Z,19.10
2022-10-13T01:30:25.412Z,19.10
2022-10-13T01:45:35.060Z,18.90
2022-10-13T02:00:47.934Z,18.70
2022-10-13T02:15:56.183Z,18.50
2022-10-13T02:31:00.605Z,18.50
2022-10-13T02:46:05.217Z,18.30
2022-10-13T03:01:10.695Z,18.40
2022-10-13T03:16:15.068Z,18.30
2022-10-13T03:31:19.908Z,18.10
2022-10-13T03:46:27.445Z,18.50
2022-10-13T04:01:34.542Z,18.50
2022-10-13T04:16:40.576Z,18.70
2022-10-13T04:31:45.006Z,18.60
2022-10-13T04:46:49.429Z,18.60
2022-10-13T05:01:53.834Z,18.40
2022-10-13T05:16:58.028Z,18.20
2022-10-13T05:32:02.410Z,18.10
2022-10-13T05:47:07.758Z,18.10
2022-10-13T06:02:14.971Z,18.10
2022-10-13T06:17:19.365Z,18.40
2022-10-13T06:32:25.067Z,17.80
2022-10-13T06:47:29.532Z,17.70
2022-10-13T07:02:34.123Z,17.50
2022-10-13T07:17:39.081Z,17.60
2022-10-13T07:32:43.772Z,17.50
2022-10-13T07:47:48.126Z,17.40
2022-10-13T08:02:52.809Z,17.60
2022-10-13T08:17:57.184Z,17.50
2022-10-13T08:33:02.703Z,17.40
2022-10-13T08:48:12.344Z,17.40
2022-10-13T09:03:25.335Z,17.80
2022-10-13T09:18:34.037Z,17.70
2022-10-13T09:33:39.234Z,17.90
2022-10-13T09:48:46.244Z,17.50
2022-10-13T10:03:51.780Z,18.00
2022-10-13T10:19:02.169Z,17.80
2022-10-13T10:34:27.212Z,17.90
2022-10-13T10:49:33.555Z,18.20
2022-10-13T11:04:42.260Z,18.30
2022-10-13T11:19:48.084Z,18.00
2022-10-13T11:35:00.515Z,18.20
2022-10-13T11:50:14.892Z,18.40
2022-10-13T12:05:24.445Z,18.30
2022-10-13T12:20:30.919Z,18.30
2022-10-13T12:35:35.999Z,18.30
2022-10-13T12:50:41.244Z,18.50
2022-10-13T13:05:51.636Z,18.30
2022-10-13T13:21:00.301Z,18.40
2022-10-13T13:36:05.735Z,18.10
2022-10-13T13:51:11.363Z,18.40
2022-10-13T14:06:20.323Z,18.60
2022-10-13T14:21:25.104Z,18.70
2022-10-13T14:36:29.819Z,18.50
2022-10-13T14:51:34.524Z,18.50
2022-10-13T15:06:40.148Z,18.40
2022-10-13T15:21:44.683Z,18.50
2022-10-13T15:36:49.186Z,18.30
2022-10-13T15:51:53.783Z,18.10
2022-10-13T16:06:59.644Z,18.00
2022-10-13T16:22:04.483Z,18.20
2022-10-13T16:37:09.316Z,18.40
2022-10-13T16:52:14.088Z,18.30
2022-10-13T17:07:18.849Z,18.20
2022-10-13T17:22:23.938Z,18.20
2022-10-13T17:37:28.601Z,18.30
2022-10-13T17:52:33.091Z,18.30
2022-10-13T18:07:37.648Z,18.40
2022-10-13T18:22:42.152Z,18.20
2022-10-13T18:37:50.919Z,18.30
2022-10-13T18:52:55.694Z,18.40
2022-10-13T19:08:00.117Z,18.40
2022-10-13T19:23:04.687Z,18.40
2022-10-13T19:38:09.699Z,18.50
2022-10-13T19:53:15.411Z,18.50
2022-10-13T20:08:19.781Z,18.40
2022-10-13T20:23:24.427Z,18.50
2022-10-13T20:38:30.500Z,18.50
2022-10-13T20:53:36.814Z,18.50
2022-10-13T21:08:41.666Z,18.50
2022-10-13T21:23:46.205Z,18.50
2022-10-13T21:38:54.422Z,18.50
2022-10-13T21:54:00.488Z,18.50
2022-10-13T22:09:08.408Z,18.60
2022-10-13T22:24:15.608Z,18.50
2022-10-13T22:39:19.955Z,18.50
2022-10-13T22:54:24.819Z,18.50
2022-10-13T23:09:30.962Z,18.50
2022-10-13T23:24:35.405Z,18.40
2022-10-13T23:39:39.947Z,18.50
2022-10-13T23:54:44.369Z,18.50
